Time;durP1;ratioP1;P1;durP2;ratioP2;P2;SDS_P1;SDS_P2;PMS_P1;PMS_P2;Temp;Humidity;BMP_temperature;BMP_pressure;BME280_temperature;BME280_humidity;BME280_pressure;Samples;Min_cycle;Max_cycle;Signal;HPM_P1;HPM_P2
2024/02/21 00:00:43;;;;;;;5.6;3.5;;;;;;;;;;;;;
2024/02/21 00:03:08;;;;;;;5;3.1;;;;;;;;;;;;;
2024/02/21 00:05:33;;;;;;;6.9;3.2;;;;;;;;;;;;;
2024/02/21 00:07:58;;;;;;;2.8;2.1;;;;;;;;;;;;;
2024/02/21 00:10:24;;;;;;;3.2;2;;;;;;;;;;;;;
2024/02/21 00:12:48;;;;;;;3.1;1.8;;;;;;;;;;;;;
2024/02/21 00:15:13;;;;;;;3.2;1.9;;;;;;;;;;;;;
2024/02/21 00:17:39;;;;;;;1.4;1.3;;;;;;;;;;;;;
2024/02/21 00:20:04;;;;;;;1.5;1.4;;;;;;;;;;;;;
2024/02/21 00:22:31;;;;;;;1.5;1.1;;;;;;;;;;;;;
2024/02/21 00:24:54;;;;;;;1.9;1.2;;;;;;;;;;;;;
2024/02/21 00:27:19;;;;;;;1.2;1.1;;;;;;;;;;;;;
2024/02/21 00:29:44;;;;;;;2.3;1.4;;;;;;;;;;;;;
2024/02/21 00:32:09;;;;;;;1.6;1.3;;;;;;;;;;;;;
2024/02/21 00:34:35;;;;;;;1.5;1.3;;;;;;;;;;;;;
2024/02/21 00:36:59;;;;;;;2.3;1.9;;;;;;;;;;;;;
2024/02/21 00:39:25;;;;;;;1.3;1.2;;;;;;;;;;;;;
2024/02/21 00:41:49;;;;;;;1.5;1.3;;;;;;;;;;;;;
2024/02/21 00:44:15;;;;;;;3.5;1.5;;;;;;;;;;;;;
2024/02/21 00:46:40;;;;;;;2.1;1.3;;;;;;;;;;;;;
2024/02/21 00:49:05;;;;;;;1.4;1.2;;;;;;;;;;;;;
2024/02/21 00:51:30;;;;;;;1.3;1.1;;;;;;;;;;;;;
2024/02/21 00:53:55;;;;;;;4;1.3;;;;;;;;;;;;;
2024/02/21 00:56:20;;;;;;;1.8;1.3;;;;;;;;;;;;;
2024/02/21 00:58:46;;;;;;;1.9;1.4;;;;;;;;;;;;;
2024/02/21 01:01:10;;;;;;;2.8;2;;;;;;;;;;;;;
2024/02/21 01:03:36;;;;;;;4.7;2.5;;;;;;;;;;;;;
2024/02/21 01:06:01;;;;;;;3.4;1.9;;;;;;;;;;;;;
2024/02/21 01:08:26;;;;;;;2.2;1.6;;;;;;;;;;;;;
2024/02/21 01:10:52;;;;;;;1.8;1.5;;;;;;;;;;;;;
2024/02/21 01:13:16;;;;;;;1.8;1.3;;;;;;;;;;;;;
2024/02/21 01:15:41;;;;;;;1.6;1.1;;;;;;;;;;;;;
2024/02/21 01:18:07;;;;;;;0.9;0.9;;;;;;;;;;;;;
2024/02/21 01:20:31;;;;;;;1.9;1.1;;;;;;;;;;;;;
2024/02/21 01:22:56;;;;;;;1.3;1;;;;;;;;;;;;;
2024/02/21 01:25:21;;;;;;;1.5;1.4;;;;;;;;;;;;;
2024/02/21 01:27:47;;;;;;;1.7;0.9;;;;;;;;;;;;;
2024/02/21 01:30:12;;;;;;;1.1;1;;;;;;;;;;;;;
2024/02/21 01:32:37;;;;;;;1.8;1.3;;;;;;;;;;;;;
2024/02/21 01:35:02;;;;;;;1.6;1.3;;;;;;;;;;;;;
2024/02/21 01:39:04;;;;;;;3.4;1.4;;;;;;;;;;;;;
2024/02/21 01:41:29;;;;;;;2.3;1.4;;;;;;;;;;;;;
2024/02/21 01:43:54;;;;;;;2;1.4;;;;;;;;;;;;;
2024/02/21 01:46:20;;;;;;;1.8;1.4;;;;;;;;;;;;;
2024/02/21 01:48:46;;;;;;;3.9;1.7;;;;;;;;;;;;;
2024/02/21 01:51:09;;;;;;;2.6;1.3;;;;;;;;;;;;;
2024/02/21 01:53:35;;;;;;;1.4;1.3;;;;;;;;;;;;;
2024/02/21 01:56:00;;;;;;;2.3;1.4;;;;;;;;;;;;;
2024/02/21 01:58:25;;;;;;;1.8;1.3;;;;;;;;;;;;;
2024/02/21 02:00:50;;;;;;;1.2;1;;;;;;;;;;;;;
2024/02/21 02:03:16;;;;;;;1.1;1.1;;;;;;;;;;;;;
2024/02/21 02:05:40;;;;;;;1.3;1.2;;;;;;;;;;;;;
2024/02/21 02:08:05;;;;;;;1.6;1.5;;;;;;;;;;;;;
2024/02/21 02:10:30;;;;;;;2.5;1.9;;;;;;;;;;;;;
2024/02/21 02:12:56;;;;;;;2.5;1.8;;;;;;;;;;;;;
2024/02/21 02:15:22;;;;;;;2.6;2.4;;;;;;;;;;;;;
2024/02/21 02:17:47;;;;;;;2.4;1.5;;;;;;;;;;;;;
2024/02/21 02:20:12;;;;;;;2.3;1.5;;;;;;;;;;;;;
2024/02/21 02:22:37;;;;;;;7;4.7;;;;;;;;;;;;;
2024/02/21 02:25:03;;;;;;;2.6;1.6;;;;;;;;;;;;;
2024/02/21 02:27:28;;;;;;;2.8;1.4;;;;;;;;;;;;;
2024/02/21 02:29:53;;;;;;;1.3;1.2;;;;;;;;;;;;;
2024/02/21 02:32:18;;;;;;;2.1;1.3;;;;;;;;;;;;;
2024/02/21 02:34:43;;;;;;;0.9;0.9;;;;;;;;;;;;;
2024/02/21 02:37:08;;;;;;;1.3;1.1;;;;;;;;;;;;;
2024/02/21 02:39:33;;;;;;;1.2;1;;;;;;;;;;;;;
2024/02/21 02:41:58;;;;;;;1.9;1.1;;;;;;;;;;;;;
2024/02/21 02:44:23;;;;;;;2.5;0.9;;;;;;;;;;;;;
2024/02/21 02:46:48;;;;;;;1.5;1;;;;;;;;;;;;;
2024/02/21 02:49:13;;;;;;;1.1;1;;;;;;;;;;;;;
2024/02/21 02:51:38;;;;;;;1.3;1.2;;;;;;;;;;;;;
2024/02/21 02:54:27;;;;;;;2;1.5;;;;;;;;;;;;;
2024/02/21 02:57:29;;;;;;;1.6;1.2;;;;;;;;;;;;;
2024/02/21 02:59:54;;;;;;;1.5;1.4;;;;;;;;;;;;;
2024/02/21 03:02:19;;;;;;;1.6;1.3;;;;;;;;;;;;;
2024/02/21 03:05:13;;;;;;;1.7;1.4;;;;;;;;;;;;;
2024/02/21 03:07:38;;;;;;;1.4;1.2;;;;;;;;;;;;;
2024/02/21 03:10:03;;;;;;;1.8;1.3;;;;;;;;;;;;;
2024/02/21 03:12:29;;;;;;;2.4;1.5;;;;;;;;;;;;;
2024/02/21 03:14:53;;;;;;;1.5;1.3;;;;;;;;;;;;;
2024/02/21 03:17:18;;;;;;;1.2;1.1;;;;;;;;;;;;;
2024/02/21 03:19:44;;;;;;;1.4;1.1;;;;;;;;;;;;;
2024/02/21 03:22:53;;;;;;;1.7;1.3;;;;;;;;;;;;;
2024/02/21 03:25:19;;;;;;;2.5;1.2;;;;;;;;;;;;;
2024/02/21 03:27:43;;;;;;;1.5;1;;;;;;;;;;;;;
2024/02/21 03:30:08;;;;;;;2.2;1.1;;;;;;;;;;;;;
2024/02/21 03:32:33;;;;;;;1.2;0.8;;;;;;;;;;;;;
2024/02/21 03:34:58;;;;;;;1.1;1;;;;;;;;;;;;;
2024/02/21 03:37:24;;;;;;;1.2;1.1;;;;;;;;;;;;;
2024/02/21 03:39:49;;;;;;;0.9;0.9;;;;;;;;;;;;;
2024/02/21 03:42:14;;;;;;;1.3;0.9;;;;;;;;;;;;;
2024/02/21 03:44:39;;;;;;;1.1;1;;;;;;;;;;;;;
2024/02/21 03:47:05;;;;;;;3.5;1.5;;;;;;;;;;;;;
2024/02/21 03:49:34;;;;;;;2.9;1.3;;;;;;;;;;;;;
2024/02/21 03:51:55;;;;;;;2.1;1.2;;;;;;;;;;;;;
2024/02/21 03:54:20;;;;;;;2.5;1.6;;;;;;;;;;;;;
2024/02/21 03:56:47;;;;;;;3.2;1.8;;;;;;;;;;;;;
2024/02/21 03:59:10;;;;;;;2.9;1.5;;;;;;;;;;;;;
2024/02/21 04:02:28;;;;;;;2.6;1.3;;;;;;;;;;;;;
2024/02/21 04:05:10;;;;;;;3.6;1.9;;;;;;;;;;;;;
2024/02/21 04:07:34;;;;;;;1.8;1.3;;;;;;;;;;;;;
2024/02/21 04:09:59;;;;;;;2.1;1.3;;;;;;;;;;;;;
2024/02/21 04:12:24;;;;;;;2.7;1.3;;;;;;;;;;;;;
2024/02/21 04:14:49;;;;;;;2.1;1.8;;;;;;;;;;;;;
2024/02/21 04:17:14;;;;;;;1.3;1.2;;;;;;;;;;;;;
2024/02/21 04:19:40;;;;;;;1.5;1.4;;;;;;;;;;;;;
2024/02/21 04:22:04;;;;;;;2.6;1.9;;;;;;;;;;;;;
2024/02/21 04:24:29;;;;;;;2.9;1.9;;;;;;;;;;;;;
2024/02/21 04:26:54;;;;;;;3.1;1.7;;;;;;;;;;;;;
2024/02/21 04:29:19;;;;;;;2;1.3;;;;;;;;;;;;;
2024/02/21 04:31:45;;;;;;;3;1.7;;;;;;;;;;;;;
2024/02/21 04:34:09;;;;;;;1.8;1.3;;;;;;;;;;;;;
2024/02/21 04:36:35;;;;;;;2.8;1.4;;;;;;;;;;;;;
2024/02/21 04:39:00;;;;;;;3.6;1.7;;;;;;;;;;;;;
2024/02/21 04:41:25;;;;;;;2.1;1.5;;;;;;;;;;;;;
2024/02/21 04:43:50;;;;;;;3.4;1.3;;;;;;;;;;;;;
2024/02/21 04:46:16;;;;;;;2.9;1.5;;;;;;;;;;;;;
2024/02/21 04:48:40;;;;;;;2.8;1.8;;;;;;;;;;;;;
2024/02/21 04:51:05;;;;;;;2;1.8;;;;;;;;;;;;;
2024/02/21 04:53:30;;;;;;;3.1;1.7;;;;;;;;;;;;;
2024/02/21 04:57:41;;;;;;;2.7;1.9;;;;;;;;;;;;;
2024/02/21 05:00:06;;;;;;;3.1;1.8;;;;;;;;;;;;;
2024/02/21 05:02:32;;;;;;;4.5;1.9;;;;;;;;;;;;;
2024/02/21 05:04:56;;;;;;;1.7;1.5;;;;;;;;;;;;;
2024/02/21 05:07:22;;;;;;;12.2;5.7;;;;;;;;;;;;;
2024/02/21 05:09:47;;;;;;;8.7;5.4;;;;;;;;;;;;;
2024/02/21 05:12:12;;;;;;;1.7;1.6;;;;;;;;;;;;;
2024/02/21 05:14:37;;;;;;;2.5;1.8;;;;;;;;;;;;;
2024/02/21 05:17:02;;;;;;;2.3;1.7;;;;;;;;;;;;;
2024/02/21 05:19:27;;;;;;;3.5;2.1;;;;;;;;;;;;;
2024/02/21 05:21:52;;;;;;;6.6;2.2;;;;;;;;;;;;;
2024/02/21 05:24:17;;;;;;;5.1;2.9;;;;;;;;;;;;;
2024/02/21 05:26:42;;;;;;;6.5;2.6;;;;;;;;;;;;;
2024/02/21 05:29:07;;;;;;;4.6;2.9;;;;;;;;;;;;;
2024/02/21 05:31:32;;;;;;;4.6;2.4;;;;;;;;;;;;;
2024/02/21 05:33:58;;;;;;;5.7;3.2;;;;;;;;;;;;;
2024/02/21 05:36:23;;;;;;;13.2;5.9;;;;;;;;;;;;;
2024/02/21 05:38:48;;;;;;;13.7;6.3;;;;;;;;;;;;;
2024/02/21 05:41:13;;;;;;;9.8;5;;;;;;;;;;;;;
2024/02/21 05:43:38;;;;;;;8.1;3.8;;;;;;;;;;;;;
2024/02/21 05:46:03;;;;;;;6.8;4;;;;;;;;;;;;;
2024/02/21 05:48:29;;;;;;;7.6;3.1;;;;;;;;;;;;;
2024/02/21 05:50:54;;;;;;;6.5;3.7;;;;;;;;;;;;;
2024/02/21 05:53:19;;;;;;;5.9;3.3;;;;;;;;;;;;;
2024/02/21 05:55:44;;;;;;;3.8;3;;;;;;;;;;;;;
2024/02/21 05:58:11;;;;;;;6.4;4.3;;;;;;;;;;;;;
2024/02/21 06:00:34;;;;;;;8.1;5;;;;;;;;;;;;;
2024/02/21 06:03:55;;;;;;;10.1;5;;;;;;;;;;;;;
2024/02/21 06:06:18;;;;;;;9.7;5.9;;;;;;;;;;;;;
2024/02/21 06:08:43;;;;;;;14.7;6.9;;;;;;;;;;;;;
2024/02/21 06:11:08;;;;;;;9.6;6.2;;;;;;;;;;;;;
2024/02/21 06:13:33;;;;;;;8.6;5.5;;;;;;;;;;;;;
2024/02/21 06:15:58;;;;;;;5.8;4.4;;;;;;;;;;;;;
2024/02/21 06:18:23;;;;;;;5.2;3.7;;;;;;;;;;;;;
2024/02/21 06:20:48;;;;;;;6.8;4.4;;;;;;;;;;;;;
2024/02/21 06:23:13;;;;;;;7.1;3.6;;;;;;;;;;;;;
2024/02/21 06:25:39;;;;;;;4.4;2.4;;;;;;;;;;;;;
2024/02/21 06:28:04;;;;;;;2.6;2.4;;;;;;;;;;;;;
2024/02/21 06:30:29;;;;;;;2.5;2;;;;;;;;;;;;;
2024/02/21 06:32:55;;;;;;;2.6;2.2;;;;;;;;;;;;;
2024/02/21 06:35:19;;;;;;;2.6;1.3;;;;;;;;;;;;;
2024/02/21 06:37:46;;;;;;;2;1.4;;;;;;;;;;;;;
2024/02/21 06:40:10;;;;;;;1.4;1.1;;;;;;;;;;;;;
2024/02/21 06:43:11;;;;;;;5.9;2.4;;;;;;;;;;;;;
2024/02/21 06:45:36;;;;;;;3.6;2.3;;;;;;;;;;;;;
2024/02/21 06:48:02;;;;;;;3.8;2.5;;;;;;;;;;;;;
2024/02/21 06:50:27;;;;;;;3.6;2.4;;;;;;;;;;;;;
2024/02/21 06:52:52;;;;;;;6.9;4.1;;;;;;;;;;;;;
2024/02/21 06:55:17;;;;;;;3.9;3.1;;;;;;;;;;;;;
2024/02/21 06:57:42;;;;;;;7;3.3;;;;;;;;;;;;;
2024/02/21 07:00:07;;;;;;;3.9;2.9;;;;;;;;;;;;;
2024/02/21 07:02:32;;;;;;;4.5;3.3;;;;;;;;;;;;;
2024/02/21 07:04:57;;;;;;;2.8;2.6;;;;;;;;;;;;;
2024/02/21 07:07:22;;;;;;;3.5;1.5;;;;;;;;;;;;;
2024/02/21 07:09:48;;;;;;;2.8;1.8;;;;;;;;;;;;;
2024/02/21 07:12:13;;;;;;;2.1;1.6;;;;;;;;;;;;;
2024/02/21 07:14:38;;;;;;;6.9;2.6;;;;;;;;;;;;;
2024/02/21 07:17:03;;;;;;;5.5;3.7;;;;;;;;;;;;;
2024/02/21 07:19:51;;;;;;;7.1;3.4;;;;;;;;;;;;;
2024/02/21 07:22:16;;;;;;;11.6;4.3;;;;;;;;;;;;;
2024/02/21 07:24:42;;;;;;;10.6;5.2;;;;;;;;;;;;;
2024/02/21 07:27:07;;;;;;;8;4.2;;;;;;;;;;;;;
2024/02/21 07:29:32;;;;;;;4.5;2.4;;;;;;;;;;;;;
2024/02/21 07:31:57;;;;;;;3.2;1.6;;;;;;;;;;;;;
2024/02/21 07:34:22;;;;;;;3.2;1.6;;;;;;;;;;;;;
2024/02/21 07:36:47;;;;;;;3.6;2.3;;;;;;;;;;;;;
2024/02/21 07:39:13;;;;;;;8.9;4.5;;;;;;;;;;;;;
2024/02/21 07:41:39;;;;;;;7.7;4.4;;;;;;;;;;;;;
2024/02/21 07:44:03;;;;;;;7.7;5.2;;;;;;;;;;;;;
2024/02/21 07:46:28;;;;;;;6.7;5.4;;;;;;;;;;;;;
2024/02/21 07:48:53;;;;;;;4.2;2.6;;;;;;;;;;;;;
2024/02/21 07:51:19;;;;;;;2.9;1.8;;;;;;;;;;;;;
2024/02/21 07:53:44;;;;;;;3.4;2.1;;;;;;;;;;;;;
2024/02/21 07:56:09;;;;;;;6.1;2;;;;;;;;;;;;;
2024/02/21 08:00:48;;;;;;;6.4;2.9;;;;;;;;;;;;;
2024/02/21 08:03:15;;;;;;;9.4;2.6;;;;;;;;;;;;;
2024/02/21 08:05:38;;;;;;;5.2;2.6;;;;;;;;;;;;;
2024/02/21 08:08:03;;;;;;;2.1;1.8;;;;;;;;;;;;;
2024/02/21 08:10:28;;;;;;;2.9;1.5;;;;;;;;;;;;;
2024/02/21 08:12:53;;;;;;;3.1;1.8;;;;;;;;;;;;;
2024/02/21 08:15:20;;;;;;;2.9;1.8;;;;;;;;;;;;;
2024/02/21 08:17:43;;;;;;;2.2;1.9;;;;;;;;;;;;;
2024/02/21 08:20:08;;;;;;;2.7;1.7;;;;;;;;;;;;;
2024/02/21 08:22:34;;;;;;;1.4;1.3;;;;;;;;;;;;;
2024/02/21 08:24:59;;;;;;;2.5;2.3;;;;;;;;;;;;;
2024/02/21 08:27:24;;;;;;;3.6;1.5;;;;;;;;;;;;;
2024/02/21 08:29:49;;;;;;;3.5;2;;;;;;;;;;;;;
2024/02/21 08:32:14;;;;;;;2;1.2;;;;;;;;;;;;;
2024/02/21 08:35:08;;;;;;;2.9;1.9;;;;;;;;;;;;;
2024/02/21 08:37:33;;;;;;;3.1;2.1;;;;;;;;;;;;;
2024/02/21 08:39:58;;;;;;;2.4;1.9;;;;;;;;;;;;;
2024/02/21 08:42:26;;;;;;;4.3;2.7;;;;;;;;;;;;;
2024/02/21 08:44:49;;;;;;;3.5;2.1;;;;;;;;;;;;;
2024/02/21 08:47:14;;;;;;;3;1.4;;;;;;;;;;;;;
2024/02/21 08:49:39;;;;;;;3;1.8;;;;;;;;;;;;;
2024/02/21 08:52:05;;;;;;;3.5;1.8;;;;;;;;;;;;;
2024/02/21 08:54:29;;;;;;;4.4;2.1;;;;;;;;;;;;;
2024/02/21 08:56:54;;;;;;;3.9;2.2;;;;;;;;;;;;;
2024/02/21 08:59:20;;;;;;;1.7;1.2;;;;;;;;;;;;;
2024/02/21 09:01:44;;;;;;;2.5;1.3;;;;;;;;;;;;;
2024/02/21 09:04:09;;;;;;;2;1.4;;;;;;;;;;;;;
2024/02/21 09:06:37;;;;;;;1.8;1;;;;;;;;;;;;;
2024/02/21 09:09:00;;;;;;;2.4;0.8;;;;;;;;;;;;;
2024/02/21 09:11:26;;;;;;;3.8;1;;;;;;;;;;;;;
2024/02/21 09:13:50;;;;;;;1.4;0.8;;;;;;;;;;;;;
2024/02/21 09:16:15;;;;;;;2;0.8;;;;;;;;;;;;;
2024/02/21 09:18:40;;;;;;;1.3;0.7;;;;;;;;;;;;;
2024/02/21 09:21:06;;;;;;;0.8;0.6;;;;;;;;;;;;;
2024/02/21 09:23:33;;;;;;;1.6;0.6;;;;;;;;;;;;;
2024/02/21 09:25:56;;;;;;;0.5;0.5;;;;;;;;;;;;;
2024/02/21 09:28:21;;;;;;;0.8;0.7;;;;;;;;;;;;;
2024/02/21 09:30:46;;;;;;;1.7;0.6;;;;;;;;;;;;;
2024/02/21 09:33:11;;;;;;;1.2;0.4;;;;;;;;;;;;;
2024/02/21 09:35:37;;;;;;;0.8;0.4;;;;;;;;;;;;;
2024/02/21 09:38:01;;;;;;;2.4;0.4;;;;;;;;;;;;;
2024/02/21 09:40:26;;;;;;;0.7;0.5;;;;;;;;;;;;;
2024/02/21 09:42:51;;;;;;;0.6;0.5;;;;;;;;;;;;;
2024/02/21 09:45:16;;;;;;;0.6;0.5;;;;;;;;;;;;;
2024/02/21 09:47:42;;;;;;;0.5;0.4;;;;;;;;;;;;;
2024/02/21 09:50:07;;;;;;;1;0.6;;;;;;;;;;;;;
2024/02/21 09:52:32;;;;;;;1.7;0.9;;;;;;;;;;;;;
2024/02/21 09:54:57;;;;;;;0.6;0.4;;;;;;;;;;;;;
2024/02/21 09:57:22;;;;;;;0.7;0.5;;;;;;;;;;;;;
2024/02/21 09:59:47;;;;;;;1.5;0.5;;;;;;;;;;;;;
2024/02/21 10:02:13;;;;;;;1.1;0.6;;;;;;;;;;;;;
2024/02/21 10:04:38;;;;;;;0.6;0.4;;;;;;;;;;;;;
2024/02/21 10:07:04;;;;;;;1.1;0.6;;;;;;;;;;;;;
2024/02/21 10:09:28;;;;;;;1.8;0.8;;;;;;;;;;;;;
2024/02/21 10:11:53;;;;;;;0.7;0.5;;;;;;;;;;;;;
2024/02/21 10:14:18;;;;;;;2.1;0.6;;;;;;;;;;;;;
2024/02/21 10:16:44;;;;;;;0.9;0.5;;;;;;;;;;;;;
2024/02/21 10:19:08;;;;;;;1.5;0.6;;;;;;;;;;;;;
2024/02/21 10:21:33;;;;;;;0.5;0.4;;;;;;;;;;;;;
2024/02/21 10:23:58;;;;;;;0.6;0.4;;;;;;;;;;;;;
2024/02/21 10:26:23;;;;;;;0.6;0.5;;;;;;;;;;;;;
2024/02/21 10:28:51;;;;;;;0.3;0.2;;;;;;;;;;;;;
2024/02/21 10:31:14;;;;;;;0.4;0.4;;;;;;;;;;;;;
2024/02/21 10:33:40;;;;;;;0.5;0.3;;;;;;;;;;;;;
2024/02/21 10:36:04;;;;;;;0.8;0.4;;;;;;;;;;;;;
2024/02/21 10:38:29;;;;;;;0.7;0.4;;;;;;;;;;;;;
2024/02/21 10:40:57;;;;;;;1;0.4;;;;;;;;;;;;;
2024/02/21 10:43:19;;;;;;;0.9;0.3;;;;;;;;;;;;;
2024/02/21 10:45:45;;;;;;;0.5;0.5;;;;;;;;;;;;;
2024/02/21 10:48:10;;;;;;;0.4;0.4;;;;;;;;;;;;;
2024/02/21 10:50:35;;;;;;;0.5;0.5;;;;;;;;;;;;;
2024/02/21 10:53:00;;;;;;;2;0.6;;;;;;;;;;;;;
2024/02/21 10:55:26;;;;;;;0.7;0.5;;;;;;;;;;;;;
2024/02/21 10:57:50;;;;;;;1.1;0.4;;;;;;;;;;;;;
2024/02/21 11:00:15;;;;;;;0.6;0.3;;;;;;;;;;;;;
2024/02/21 11:02:40;;;;;;;0.5;0.5;;;;;;;;;;;;;
2024/02/21 11:05:05;;;;;;;1.4;0.4;;;;;;;;;;;;;
2024/02/21 11:07:32;;;;;;;0.3;0.3;;;;;;;;;;;;;
2024/02/21 11:09:56;;;;;;;0.9;0.5;;;;;;;;;;;;;
2024/02/21 11:12:20;;;;;;;0.5;0.5;;;;;;;;;;;;;
2024/02/21 11:14:46;;;;;;;2;0.8;;;;;;;;;;;;;
2024/02/21 11:17:46;;;;;;;3.1;0.7;;;;;;;;;;;;;
2024/02/21 11:20:11;;;;;;;0.7;0.4;;;;;;;;;;;;;
2024/02/21 11:22:36;;;;;;;2.7;0.6;;;;;;;;;;;;;
2024/02/21 11:25:01;;;;;;;1.9;0.8;;;;;;;;;;;;;
2024/02/21 11:27:32;;;;;;;1;0.5;;;;;;;;;;;;;
2024/02/21 11:29:52;;;;;;;0.5;0.5;;;;;;;;;;;;;
2024/02/21 11:32:18;;;;;;;2.5;1.5;;;;;;;;;;;;;
2024/02/21 11:34:42;;;;;;;0.4;0.4;;;;;;;;;;;;;
2024/02/21 11:37:07;;;;;;;1.1;0.5;;;;;;;;;;;;;
2024/02/21 11:39:32;;;;;;;1;0.6;;;;;;;;;;;;;
2024/02/21 11:41:57;;;;;;;0.3;0.3;;;;;;;;;;;;;
2024/02/21 11:44:22;;;;;;;0.4;0.4;;;;;;;;;;;;;
2024/02/21 11:46:47;;;;;;;1.1;0.5;;;;;;;;;;;;;
2024/02/21 11:49:12;;;;;;;1.6;0.4;;;;;;;;;;;;;
2024/02/21 11:51:37;;;;;;;0.9;0.4;;;;;;;;;;;;;
2024/02/21 11:54:04;;;;;;;1;0.6;;;;;;;;;;;;;
2024/02/21 11:56:28;;;;;;;2.6;1.4;;;;;;;;;;;;;
2024/02/21 12:01:04;;;;;;;4.6;1.5;;;;;;;;;;;;;
2024/02/21 12:03:29;;;;;;;3;1.7;;;;;;;;;;;;;
2024/02/21 12:05:56;;;;;;;1.3;0.7;;;;;;;;;;;;;
2024/02/21 12:08:20;;;;;;;0.5;0.5;;;;;;;;;;;;;
2024/02/21 12:13:03;;;;;;;0.6;0.5;;;;;;;;;;;;;
2024/02/21 12:15:27;;;;;;;1.1;0.7;;;;;;;;;;;;;
2024/02/21 12:17:52;;;;;;;0.8;0.3;;;;;;;;;;;;;
2024/02/21 12:20:17;;;;;;;0.8;0.5;;;;;;;;;;;;;
2024/02/21 12:22:42;;;;;;;1;0.6;;;;;;;;;;;;;
2024/02/21 12:27:33;;;;;;;2;0.5;;;;;;;;;;;;;
2024/02/21 12:29:58;;;;;;;0.5;0.5;;;;;;;;;;;;;
2024/02/21 12:32:23;;;;;;;0.6;0.6;;;;;;;;;;;;;
2024/02/21 12:34:48;;;;;;;0.7;0.7;;;;;;;;;;;;;
2024/02/21 12:37:15;;;;;;;0.9;0.7;;;;;;;;;;;;;
2024/02/21 12:39:38;;;;;;;1.3;0.7;;;;;;;;;;;;;
2024/02/21 12:42:03;;;;;;;1.3;0.7;;;;;;;;;;;;;
2024/02/21 12:44:29;;;;;;;0.3;0.3;;;;;;;;;;;;;
2024/02/21 12:46:54;;;;;;;0.8;0.3;;;;;;;;;;;;;
2024/02/21 12:49:18;;;;;;;2.1;1.1;;;;;;;;;;;;;
2024/02/21 12:51:44;;;;;;;1.2;0.7;;;;;;;;;;;;;
2024/02/21 12:54:11;;;;;;;1.2;0.4;;;;;;;;;;;;;
2024/02/21 12:56:34;;;;;;;0.9;0.6;;;;;;;;;;;;;
2024/02/21 12:59:00;;;;;;;0.3;0.3;;;;;;;;;;;;;
2024/02/21 13:01:25;;;;;;;0.6;0.3;;;;;;;;;;;;;
2024/02/21 13:03:50;;;;;;;0.7;0.3;;;;;;;;;;;;;
2024/02/21 13:06:15;;;;;;;1.5;0.6;;;;;;;;;;;;;
2024/02/21 13:08:41;;;;;;;0.6;0.5;;;;;;;;;;;;;
2024/02/21 13:11:05;;;;;;;0.6;0.6;;;;;;;;;;;;;
2024/02/21 13:13:30;;;;;;;0.7;0.6;;;;;;;;;;;;;
2024/02/21 13:15:55;;;;;;;1;0.8;;;;;;;;;;;;;
2024/02/21 13:18:20;;;;;;;0.4;0.4;;;;;;;;;;;;;
2024/02/21 13:20:45;;;;;;;0.5;0.5;;;;;;;;;;;;;
2024/02/21 13:23:11;;;;;;;1.5;0.3;;;;;;;;;;;;;
2024/02/21 13:28:47;;;;;;;0.9;0.6;;;;;;;;;;;;;
2024/02/21 13:31:12;;;;;;;0.4;0.4;;;;;;;;;;;;;
2024/02/21 13:33:38;;;;;;;0.6;0.4;;;;;;;;;;;;;
2024/02/21 13:37:42;;;;;;;0.7;0.6;;;;;;;;;;;;;
2024/02/21 13:41:23;;;;;;;0.7;0.6;;;;;;;;;;;;;
2024/02/21 13:43:48;;;;;;;1.5;0.5;;;;;;;;;;;;;
2024/02/21 13:46:14;;;;;;;2.5;0.6;;;;;;;;;;;;;
2024/02/21 13:48:39;;;;;;;0.6;0.5;;;;;;;;;;;;;
2024/02/21 13:51:04;;;;;;;0.4;0.4;;;;;;;;;;;;;
2024/02/21 13:53:29;;;;;;;1.4;0.4;;;;;;;;;;;;;
2024/02/21 13:55:54;;;;;;;0.3;0.3;;;;;;;;;;;;;
2024/02/21 13:58:19;;;;;;;0.5;0.4;;;;;;;;;;;;;
2024/02/21 14:00:45;;;;;;;0.4;0.4;;;;;;;;;;;;;
2024/02/21 14:03:10;;;;;;;0.4;0.3;;;;;;;;;;;;;
2024/02/21 14:05:35;;;;;;;1.3;0.5;;;;;;;;;;;;;
2024/02/21 14:08:00;;;;;;;0.7;0.5;;;;;;;;;;;;;
2024/02/21 14:10:25;;;;;;;0.8;0.4;;;;;;;;;;;;;
2024/02/21 14:12:50;;;;;;;0.6;0.5;;;;;;;;;;;;;
2024/02/21 14:15:16;;;;;;;0.8;0.4;;;;;;;;;;;;;
2024/02/21 14:17:41;;;;;;;3.3;0.6;;;;;;;;;;;;;
2024/02/21 14:20:06;;;;;;;1.7;0.5;;;;;;;;;;;;;
2024/02/21 14:22:30;;;;;;;0.3;0.3;;;;;;;;;;;;;
2024/02/21 14:24:56;;;;;;;0.6;0.4;;;;;;;;;;;;;
2024/02/21 14:27:21;;;;;;;0.7;0.3;;;;;;;;;;;;;
2024/02/21 14:29:46;;;;;;;0.3;0.3;;;;;;;;;;;;;
2024/02/21 14:32:11;;;;;;;0.3;0.3;;;;;;;;;;;;;
2024/02/21 14:34:36;;;;;;;0.4;0.4;;;;;;;;;;;;;
2024/02/21 14:37:01;;;;;;;0.3;0.3;;;;;;;;;;;;;
2024/02/21 14:39:26;;;;;;;1.1;0.5;;;;;;;;;;;;;
2024/02/21 14:41:51;;;;;;;0.4;0.4;;;;;;;;;;;;;
2024/02/21 14:44:16;;;;;;;0.3;0.3;;;;;;;;;;;;;
2024/02/21 14:46:41;;;;;;;2;1.2;;;;;;;;;;;;;
2024/02/21 14:49:06;;;;;;;1.5;0.5;;;;;;;;;;;;;
2024/02/21 14:51:33;;;;;;;0.6;0.5;;;;;;;;;;;;;
2024/02/21 14:53:57;;;;;;;0.6;0.5;;;;;;;;;;;;;
2024/02/21 14:56:23;;;;;;;0.9;0.5;;;;;;;;;;;;;
2024/02/21 14:58:47;;;;;;;0.9;0.5;;;;;;;;;;;;;
2024/02/21 15:01:12;;;;;;;0.5;0.5;;;;;;;;;;;;;
2024/02/21 15:03:37;;;;;;;1.3;0.8;;;;;;;;;;;;;
2024/02/21 15:06:02;;;;;;;1.7;0.7;;;;;;;;;;;;;
2024/02/21 15:08:27;;;;;;;0.7;0.5;;;;;;;;;;;;;
2024/02/21 15:10:52;;;;;;;2;0.6;;;;;;;;;;;;;
2024/02/21 15:13:17;;;;;;;0.5;0.5;;;;;;;;;;;;;
2024/02/21 15:15:42;;;;;;;0.4;0.4;;;;;;;;;;;;;
2024/02/21 15:20:27;;;;;;;0.6;0.5;;;;;;;;;;;;;
2024/02/21 15:22:51;;;;;;;2.3;0.5;;;;;;;;;;;;;
2024/02/21 15:25:17;;;;;;;1.2;0.6;;;;;;;;;;;;;
2024/02/21 15:27:41;;;;;;;0.8;0.5;;;;;;;;;;;;;
2024/02/21 15:30:06;;;;;;;1.8;0.4;;;;;;;;;;;;;
2024/02/21 15:32:31;;;;;;;1;0.7;;;;;;;;;;;;;
2024/02/21 15:34:56;;;;;;;1.5;0.5;;;;;;;;;;;;;
2024/02/21 15:37:22;;;;;;;2.5;0.6;;;;;;;;;;;;;
2024/02/21 15:39:47;;;;;;;1.4;0.5;;;;;;;;;;;;;
2024/02/21 15:42:56;;;;;;;2.3;0.5;;;;;;;;;;;;;
2024/02/21 15:45:21;;;;;;;3.5;0.9;;;;;;;;;;;;;
2024/02/21 15:47:46;;;;;;;2.1;1;;;;;;;;;;;;;
2024/02/21 15:50:11;;;;;;;1.5;1;;;;;;;;;;;;;
2024/02/21 15:52:37;;;;;;;2.4;1;;;;;;;;;;;;;
2024/02/21 15:55:01;;;;;;;2.6;1.2;;;;;;;;;;;;;
2024/02/21 15:57:26;;;;;;;2.2;1.1;;;;;;;;;;;;;
2024/02/21 15:59:53;;;;;;;3.1;1;;;;;;;;;;;;;
2024/02/21 16:02:16;;;;;;;1.6;1;;;;;;;;;;;;;
2024/02/21 16:04:41;;;;;;;2.6;0.8;;;;;;;;;;;;;
2024/02/21 16:07:07;;;;;;;1.3;0.7;;;;;;;;;;;;;
2024/02/21 16:09:32;;;;;;;5.1;0.7;;;;;;;;;;;;;
2024/02/21 16:11:57;;;;;;;3.6;1.6;;;;;;;;;;;;;
2024/02/21 16:14:23;;;;;;;3.4;1.1;;;;;;;;;;;;;
2024/02/21 16:18:42;;;;;;;1.9;1.2;;;;;;;;;;;;;
2024/02/21 16:21:07;;;;;;;3;1;;;;;;;;;;;;;
2024/02/21 16:23:32;;;;;;;4;1.6;;;;;;;;;;;;;
2024/02/21 16:25:57;;;;;;;3.6;1.4;;;;;;;;;;;;;
2024/02/21 16:28:23;;;;;;;3.5;1.2;;;;;;;;;;;;;
2024/02/21 16:30:47;;;;;;;7.1;1.3;;;;;;;;;;;;;
2024/02/21 16:33:12;;;;;;;4.9;1;;;;;;;;;;;;;
2024/02/21 16:35:39;;;;;;;3.1;0.9;;;;;;;;;;;;;
2024/02/21 16:38:04;;;;;;;1.4;1.3;;;;;;;;;;;;;
2024/02/21 16:40:27;;;;;;;2.9;1.2;;;;;;;;;;;;;
2024/02/21 16:42:53;;;;;;;3.1;1.7;;;;;;;;;;;;;
2024/02/21 16:45:18;;;;;;;5.1;1.8;;;;;;;;;;;;;
2024/02/21 16:47:43;;;;;;;5.6;1.3;;;;;;;;;;;;;
2024/02/21 16:50:08;;;;;;;3.4;1.4;;;;;;;;;;;;;
2024/02/21 16:52:33;;;;;;;6.3;2.4;;;;;;;;;;;;;
2024/02/21 16:54:58;;;;;;;5.7;1.8;;;;;;;;;;;;;
2024/02/21 16:57:24;;;;;;;9.5;2.1;;;;;;;;;;;;;
2024/02/21 16:59:49;;;;;;;5.2;2.4;;;;;;;;;;;;;
2024/02/21 17:02:14;;;;;;;4.6;2.2;;;;;;;;;;;;;
2024/02/21 17:04:39;;;;;;;3.2;2.1;;;;;;;;;;;;;
2024/02/21 17:07:04;;;;;;;4.7;1.8;;;;;;;;;;;;;
2024/02/21 17:09:31;;;;;;;4.8;2;;;;;;;;;;;;;
2024/02/21 17:11:54;;;;;;;5.6;2.1;;;;;;;;;;;;;
2024/02/21 17:14:20;;;;;;;6.2;2.4;;;;;;;;;;;;;
2024/02/21 17:16:44;;;;;;;3.1;2.1;;;;;;;;;;;;;
2024/02/21 17:19:11;;;;;;;4.3;1.5;;;;;;;;;;;;;
2024/02/21 17:21:34;;;;;;;4.3;2.1;;;;;;;;;;;;;
2024/02/21 17:24:01;;;;;;;6;2.6;;;;;;;;;;;;;
2024/02/21 17:26:26;;;;;;;4.3;1.9;;;;;;;;;;;;;
2024/02/21 17:28:50;;;;;;;7.1;1.9;;;;;;;;;;;;;
2024/02/21 17:31:15;;;;;;;3.5;1.9;;;;;;;;;;;;;
2024/02/21 17:33:40;;;;;;;5.2;1.9;;;;;;;;;;;;;
2024/02/21 17:36:05;;;;;;;3.8;2.1;;;;;;;;;;;;;
2024/02/21 17:38:30;;;;;;;4.2;2.7;;;;;;;;;;;;;
2024/02/21 17:40:55;;;;;;;5.1;2.8;;;;;;;;;;;;;
2024/02/21 17:43:20;;;;;;;4.1;2.7;;;;;;;;;;;;;
2024/02/21 17:45:47;;;;;;;3.9;2.2;;;;;;;;;;;;;
2024/02/21 17:48:11;;;;;;;4.4;3.2;;;;;;;;;;;;;
2024/02/21 17:50:36;;;;;;;7.2;4.3;;;;;;;;;;;;;
2024/02/21 17:53:02;;;;;;;4.5;3.3;;;;;;;;;;;;;
2024/02/21 17:55:26;;;;;;;3.9;3.2;;;;;;;;;;;;;
2024/02/21 17:57:51;;;;;;;8;3.1;;;;;;;;;;;;;
2024/02/21 18:00:16;;;;;;;6.2;3.5;;;;;;;;;;;;;
2024/02/21 18:02:41;;;;;;;6.2;3.9;;;;;;;;;;;;;
2024/02/21 18:06:26;;;;;;;8.8;3.8;;;;;;;;;;;;;
2024/02/21 18:08:52;;;;;;;6.2;4.1;;;;;;;;;;;;;
2024/02/21 18:11:16;;;;;;;7.3;4.1;;;;;;;;;;;;;
2024/02/21 18:13:42;;;;;;;6;3.3;;;;;;;;;;;;;
2024/02/21 18:18:04;;;;;;;6.7;3.1;;;;;;;;;;;;;
2024/02/21 18:20:29;;;;;;;7.9;3.9;;;;;;;;;;;;;
2024/02/21 18:22:54;;;;;;;9.6;6.1;;;;;;;;;;;;;
2024/02/21 18:25:20;;;;;;;7.1;4.4;;;;;;;;;;;;;
2024/02/21 18:27:44;;;;;;;15.7;7.8;;;;;;;;;;;;;
2024/02/21 18:30:09;;;;;;;15.8;8.8;;;;;;;;;;;;;
2024/02/21 18:32:35;;;;;;;26.4;13.9;;;;;;;;;;;;;
2024/02/21 18:35:00;;;;;;;25.6;13.7;;;;;;;;;;;;;
2024/02/21 18:37:25;;;;;;;23.3;15.6;;;;;;;;;;;;;
2024/02/21 18:40:10;;;;;;;15.1;8.6;;;;;;;;;;;;;
2024/02/21 18:42:31;;;;;;;15.4;9.3;;;;;;;;;;;;;
2024/02/21 18:44:56;;;;;;;14.6;9.2;;;;;;;;;;;;;
2024/02/21 18:47:21;;;;;;;21.2;10.2;;;;;;;;;;;;;
2024/02/21 18:49:46;;;;;;;18;10.4;;;;;;;;;;;;;
2024/02/21 18:52:11;;;;;;;11.7;8.4;;;;;;;;;;;;;
2024/02/21 18:54:36;;;;;;;10.9;7.6;;;;;;;;;;;;;
2024/02/21 18:57:01;;;;;;;11.9;7.2;;;;;;;;;;;;;
2024/02/21 18:59:28;;;;;;;12;6.9;;;;;;;;;;;;;
2024/02/21 19:01:53;;;;;;;13.7;7.4;;;;;;;;;;;;;
2024/02/21 19:04:17;;;;;;;12.4;7.8;;;;;;;;;;;;;
2024/02/21 19:06:43;;;;;;;13.1;7.3;;;;;;;;;;;;;
2024/02/21 19:09:07;;;;;;;12.2;7.2;;;;;;;;;;;;;
2024/02/21 19:11:32;;;;;;;8.7;5.5;;;;;;;;;;;;;
2024/02/21 19:13:57;;;;;;;12.2;8.1;;;;;;;;;;;;;
2024/02/21 19:16:22;;;;;;;11.4;6.5;;;;;;;;;;;;;
2024/02/21 19:18:48;;;;;;;13.1;7.9;;;;;;;;;;;;;
2024/02/21 19:21:35;;;;;;;13.8;8.5;;;;;;;;;;;;;
2024/02/21 19:23:50;;;;;;;11.8;6.9;;;;;;;;;;;;;
2024/02/21 19:26:04;;;;;;;45.5;27.5;;;;;;;;;;;;;
2024/02/21 19:28:38;;;;;;;12.1;6.9;;;;;;;;;;;;;
2024/02/21 19:30:59;;;;;;;9.1;5.4;;;;;;;;;;;;;
2024/02/21 19:33:23;;;;;;;12.9;6.7;;;;;;;;;;;;;
2024/02/21 19:35:50;;;;;;;13.6;7.5;;;;;;;;;;;;;
2024/02/21 19:39:25;;;;;;;33.5;18.6;;;;;;;;;;;;;
2024/02/21 19:40:42;;;;;;;13.3;7.5;;;;;;;;;;;;;
2024/02/21 19:43:08;;;;;;;16;9.3;;;;;;;;;;;;;
2024/02/21 19:45:37;;;;;;;14.9;9.1;;;;;;;;;;;;;
2024/02/21 19:48:00;;;;;;;18.9;12.4;;;;;;;;;;;;;
2024/02/21 19:50:22;;;;;;;17.5;10.4;;;;;;;;;;;;;
2024/02/21 19:52:47;;;;;;;14;8.9;;;;;;;;;;;;;
2024/02/21 19:55:11;;;;;;;14.6;8.4;;;;;;;;;;;;;
2024/02/21 19:57:37;;;;;;;16.8;8.9;;;;;;;;;;;;;
2024/02/21 20:00:04;;;;;;;10.2;6.8;;;;;;;;;;;;;
2024/02/21 20:02:27;;;;;;;11;6.4;;;;;;;;;;;;;
2024/02/21 20:04:52;;;;;;;12.7;6.7;;;;;;;;;;;;;
2024/02/21 20:07:17;;;;;;;10.5;6.4;;;;;;;;;;;;;
2024/02/21 20:09:42;;;;;;;9.8;6;;;;;;;;;;;;;
2024/02/21 20:12:07;;;;;;;18;9.4;;;;;;;;;;;;;
2024/02/21 20:14:33;;;;;;;15.6;9.4;;;;;;;;;;;;;
2024/02/21 20:16:57;;;;;;;11.8;7.7;;;;;;;;;;;;;
2024/02/21 20:19:22;;;;;;;9.6;6.1;;;;;;;;;;;;;
2024/02/21 20:21:49;;;;;;;10.2;6.3;;;;;;;;;;;;;
2024/02/21 20:24:13;;;;;;;36.4;20.6;;;;;;;;;;;;;
2024/02/21 20:26:43;;;;;;;43.2;24.6;;;;;;;;;;;;;
2024/02/21 20:29:03;;;;;;;25.4;14.9;;;;;;;;;;;;;
2024/02/21 20:31:28;;;;;;;77.6;39.3;;;;;;;;;;;;;
2024/02/21 20:33:53;;;;;;;19.1;11.5;;;;;;;;;;;;;
2024/02/21 20:36:18;;;;;;;15.5;10.5;;;;;;;;;;;;;
2024/02/21 20:38:44;;;;;;;10.2;6.7;;;;;;;;;;;;;
2024/02/21 20:41:09;;;;;;;8;5.4;;;;;;;;;;;;;
2024/02/21 20:43:34;;;;;;;6.7;4.5;;;;;;;;;;;;;
2024/02/21 20:46:49;;;;;;;7.5;5.3;;;;;;;;;;;;;
2024/02/21 20:49:14;;;;;;;7.6;5.5;;;;;;;;;;;;;
2024/02/21 20:51:38;;;;;;;6.9;4.7;;;;;;;;;;;;;
2024/02/21 20:54:04;;;;;;;6.8;4;;;;;;;;;;;;;
2024/02/21 20:56:29;;;;;;;4.8;2.8;;;;;;;;;;;;;
2024/02/21 20:58:54;;;;;;;3.1;2.2;;;;;;;;;;;;;